Aeroporto :
LOGIN :

Iscrizione | Disclaimer

   EN    FR    IT 

 










Sommario :    VFR   VFR Marginale   IFR   IFR Intensivo   IFR Molto Intensivo
Visibilità : 
Base nubi : 
>= 8 km
>= 3000ft
5 / 8 km
1000 / 3000 ft
1500m / 5 km
500 / 1000 ft
800 / 1500m
200 / 500 ft
< 800m
< 200 ft
Simboli :   Temporali  Nebbia  Neve Forte  Precipitazioni Forti  Vento > 20 kt
SIGMETs :   Varie  Temporali  Ghiacco  Turbolenza  Onda orograficha  Ceneri Vulcaniche






- Altitudine del aeroporto : 160 ft
- Codice IATA : FMO


EDDG - Münster Osnabrück Int.

ULTIMO METAR :
  • 261820Z 11005KT 040V150 CAVOK 19/07 Q1034 NOSIG

METARs OBSOLETI :
  • 261750Z VRB03KT CAVOK 21/07 Q1034 NOSIG
  • 261720Z VRB04KT CAVOK 21/07 Q1034 NOSIG
  • 261650Z VRB04KT CAVOK 21/07 Q1034 NOSIG
  • 261620Z 17004KT 110V280 CAVOK 21/06 Q1034 NOSIG
  • 261550Z VRB03KT CAVOK 21/06 Q1034 NOSIG

TAF TAF EDDG
Valido dal 26 a 18 ore il 27 a 18 ore UTC


261700Z 2618/2718 VRB02KT CAVOK
BECMG 2709/2712 34008KT



MetMap, La meteo Aeronautica in un colpo d'occhio ! - Copyright ORBIFLY Dicembre 2007 - Disclaimer

ORBIFLY MET'MAP TEAM :

Programmazione e sviluppo : Alexandra Zaïnal
Concezione : Baudouin d'Aumeries
Aiuto per la programmazione : Marc-Olivier Méhu
Supporto tecnico e logistico : Manuel Goepfert
Aiuto per la traduzione : Arnaldo La Scala

Contatto : metmap@orbifly.com




FONTI E CREDITI :

   NOAA